Time;durP1;ratioP1;P1;durP2;ratioP2;P2;SDS_P1;SDS_P2;PMS_P1;PMS_P2;Temp;Humidity;BMP_temperature;BMP_pressure;BME280_temperature;BME280_humidity;BME280_pressure;Samples;Min_cycle;Max_cycle;Signal;HPM_P1;HPM_P2
2022/02/10 00:18:01;;;;;;;1.50;0.77;;;;;;;;;;5052888;28;20662;-79
2022/02/10 00:20:35;;;;;;;1.65;1.17;;;;;;;;;;5051376;28;20063;-77
2022/02/10 00:34:08;;;;;;;;;;;;;;;;;;5052990;28;20033;-78
2022/02/10 00:36:39;;;;;;;7.43;1.20;;;;;;;;;;5050780;28;20083;-78
2022/02/10 00:39:26;;;;;;;1.55;0.88;;;;;;;;;;5051542;28;20106;-77
2022/02/10 00:41:54;;;;;;;1.80;1.00;;;;;;;;;;5052120;28;20524;-76
2022/02/10 00:44:20;;;;;;;1.20;0.93;;;;;;;;;;5050480;28;20029;-78
2022/02/10 00:46:46;;;;;;;1.02;0.70;;;;;;;;;;5067696;28;20373;-78
2022/02/10 00:49:12;;;;;;;2.25;0.80;;;;;;;;;;5065954;28;20036;-77
2022/02/10 00:51:38;;;;;;;2.45;1.38;;;;;;;;;;5050685;28;20119;-78
2022/02/10 00:54:04;;;;;;;2.63;0.88;;;;;;;;;;5051054;28;20402;-78
2022/02/10 00:56:33;;;;;;;1.25;0.65;;;;;;;;;;5051517;28;20078;-77
2022/02/10 01:12:57;;;;;;;2.67;1.05;;;;;;;;;;5051238;28;20047;-77
2022/02/10 01:31:54;;;;;;;1.48;0.95;;;;;;;;;;5050881;28;20135;-77
2022/02/10 01:34:23;;;;;;;1.60;1.13;;;;;;;;;;5066337;28;20029;-76
2022/02/10 01:36:49;;;;;;;3.58;1.35;;;;;;;;;;5050326;28;20030;-77
2022/02/10 01:39:22;;;;;;;1.02;0.93;;;;;;;;;;5050564;28;20108;-78
2022/02/10 02:03:37;;;;;;;1.88;0.95;;;;;;;;;;5054478;28;20210;-78
2022/02/10 02:06:11;;;;;;;1.90;1.15;;;;;;;;;;5054201;28;20025;-75
2022/02/10 02:08:43;;;;;;;1.50;0.98;;;;;;;;;;5054987;28;20021;-78
2022/02/10 02:11:09;;;;;;;2.40;0.80;;;;;;;;;;5053352;28;20059;-78
2022/02/10 02:13:35;;;;;;;3.20;1.00;;;;;;;;;;5054585;28;20029;-78
2022/02/10 02:16:03;;;;;;;1.38;0.73;;;;;;;;;;5054173;28;20964;-75
2022/02/10 02:18:29;;;;;;;3.00;1.73;;;;;;;;;;5054467;28;20029;-78
2022/02/10 02:20:56;;;;;;;1.98;1.13;;;;;;;;;;5069948;28;20028;-76
2022/02/10 02:23:24;;;;;;;1.55;0.90;;;;;;;;;;5070038;28;20879;-76
2022/02/10 02:25:59;;;;;;;2.30;0.93;;;;;;;;;;5054189;28;20029;-76
2022/02/10 02:28:25;;;;;;;1.33;0.90;;;;;;;;;;5069708;28;20036;-77
2022/02/10 02:30:57;;;;;;;1.85;1.25;;;;;;;;;;5069597;28;20122;-77
2022/02/10 02:39:19;;;;;;;1.77;0.65;;;;;;;;;;5054817;28;20393;-76
2022/02/10 03:05:02;;;;;;;2.17;1.25;;;;;;;;;;5051588;28;20566;-75
2022/02/10 03:06:50;;;;;;;1.38;0.60;;;;;;;;;;5049339;28;20028;-76
2022/02/10 03:09:23;;;;;;;1.45;0.80;;;;;;;;;;5053996;28;20642;-77
2022/02/10 03:11:49;;;;;;;3.78;0.80;;;;;;;;;;5052855;28;20028;-76
2022/02/10 03:14:20;;;;;;;2.13;0.73;;;;;;;;;;5052817;28;20028;-76
2022/02/10 03:17:43;;;;;;;1.53;0.60;;;;;;;;;;5053492;28;20029;-77
2022/02/10 04:11:39;;;;;;;;;;;;;;;;;;5052164;28;20368;-77
2022/02/10 04:16:38;;;;;;;2.05;0.70;;;;;;;;;;5052410;28;21651;-76
2022/02/10 04:25:07;;;;;;;1.30;0.68;;;;;;;;;;5052162;28;20456;-76
2022/02/10 04:27:54;;;;;;;0.65;0.52;;;;;;;;;;5051442;28;20346;-79
2022/02/10 04:57:06;;;;;;;1.38;0.68;;;;;;;;;;5051284;28;20064;-77
2022/02/10 05:33:42;;;;;;;2.22;1.17;;;;;;;;;;5051042;28;20044;-77
2022/02/10 05:36:11;;;;;;;1.77;0.95;;;;;;;;;;5049903;28;20580;-77
2022/02/10 05:38:45;;;;;;;2.42;1.00;;;;;;;;;;5051076;28;20025;-76
2022/02/10 07:04:30;;;;;;;0.73;0.52;;;;;;;;;;5052558;28;20044;-77
2022/02/10 07:53:45;;;;;;;5.38;2.05;;;;;;;;;;5051376;28;20079;-77
2022/02/10 07:56:37;;;;;;;6.70;2.42;;;;;;;;;;5052337;28;20040;-76
2022/02/10 07:59:32;;;;;;;2.17;0.95;;;;;;;;;;5068960;28;20035;-76
2022/02/10 09:02:20;;;;;;;9.95;3.60;;;;;;;;;;5051527;28;20083;-77
2022/02/10 09:05:08;;;;;;;3.75;1.63;;;;;;;;;;5050288;28;20024;-76
2022/02/10 09:08:17;;;;;;;5.65;2.42;;;;;;;;;;5052005;28;20051;-75
2022/02/10 09:54:59;;;;;;;7.57;1.63;;;;;;;;;;5051372;28;20499;-77
2022/02/10 10:02:00;;;;;;;4.50;1.38;;;;;;;;;;5049946;28;20090;-76
2022/02/10 10:04:34;;;;;;;6.38;1.13;;;;;;;;;;5050531;28;20594;-77
2022/02/10 10:07:47;;;;;;;2.47;1.20;;;;;;;;;;5054194;28;20029;-77
2022/02/10 10:50:16;;;;;;;2.83;1.20;;;;;;;;;;5054083;28;20056;-76
2022/02/10 10:54:50;;;;;;;2.17;1.05;;;;;;;;;;5052876;28;21666;-78
2022/02/10 10:57:23;;;;;;;6.60;2.38;;;;;;;;;;5069224;28;20048;-76
2022/02/10 11:22:23;;;;;;;1.58;0.90;;;;;;;;;;5053824;28;21705;-77
2022/02/10 11:39:02;;;;;;;3.00;1.08;;;;;;;;;;5052744;28;20150;-78
2022/02/10 11:41:37;;;;;;;3.55;0.95;;;;;;;;;;5051031;28;20116;-77
2022/02/10 13:31:16;;;;;;;4.95;1.25;;;;;;;;;;5048690;28;20045;-85
2022/02/10 13:34:00;;;;;;;4.90;0.93;;;;;;;;;;5044918;28;20067;-81
2022/02/10 14:17:07;;;;;;;4.68;0.90;;;;;;;;;;5056833;28;20635;-77
2022/02/10 14:27:26;;;;;;;1.48;0.73;;;;;;;;;;5057238;28;20040;-75
2022/02/10 14:29:52;;;;;;;3.05;0.50;;;;;;;;;;5073191;28;20043;-76
2022/02/10 14:32:23;;;;;;;1.20;0.85;;;;;;;;;;5057662;28;20040;-78
2022/02/10 14:34:51;;;;;;;0.85;0.70;;;;;;;;;;5073431;28;20033;-79
2022/02/10 14:37:46;;;;;;;1.75;0.95;;;;;;;;;;5057831;28;20067;-77
2022/02/10 14:40:29;;;;;;;1.45;0.90;;;;;;;;;;5057601;28;20392;-76
2022/02/10 14:43:26;;;;;;;3.30;1.70;;;;;;;;;;5072113;28;20029;-77
2022/02/10 15:11:07;;;;;;;1.33;0.70;;;;;;;;;;5053142;28;21645;-78
2022/02/10 15:51:46;;;;;;;0.70;0.50;;;;;;;;;;5052297;28;20029;-79
2022/02/10 16:18:43;;;;;;;0.75;0.50;;;;;;;;;;5050311;28;20029;-77
2022/02/10 16:21:09;;;;;;;0.60;0.35;;;;;;;;;;5052623;28;20020;-77
2022/02/10 16:23:35;;;;;;;1.33;0.60;;;;;;;;;;5050485;28;20040;-80
2022/02/10 16:26:16;;;;;;;0.47;0.30;;;;;;;;;;5068015;28;20133;-78
2022/02/10 16:28:44;;;;;;;1.05;0.60;;;;;;;;;;5051711;28;20059;-78
2022/02/10 16:31:11;;;;;;;0.40;0.28;;;;;;;;;;5068121;28;20160;-76
2022/02/10 16:33:38;;;;;;;3.72;0.50;;;;;;;;;;5051259;28;20025;-77
2022/02/10 16:36:05;;;;;;;0.40;0.20;;;;;;;;;;5066618;28;20106;-77
2022/02/10 16:38:32;;;;;;;0.70;0.28;;;;;;;;;;5067466;28;20029;-77
2022/02/10 16:40:58;;;;;;;0.88;0.45;;;;;;;;;;5066711;28;20032;-78
2022/02/10 16:43:26;;;;;;;0.90;0.40;;;;;;;;;;5066522;28;20676;-79
2022/02/10 16:45:54;;;;;;;0.45;0.40;;;;;;;;;;5051687;28;20445;-79
2022/02/10 16:48:23;;;;;;;0.68;0.30;;;;;;;;;;5067427;28;20041;-79
2022/02/10 16:50:49;;;;;;;1.27;0.40;;;;;;;;;;5066427;28;20040;-76
2022/02/10 16:53:19;;;;;;;0.47;0.30;;;;;;;;;;5052477;28;20047;-81
2022/02/10 16:56:04;;;;;;;0.65;0.32;;;;;;;;;;5067902;28;20036;-78
2022/02/10 16:58:41;;;;;;;0.45;0.38;;;;;;;;;;5052191;28;20032;-78
2022/02/10 17:25:34;;;;;;;1.05;0.63;;;;;;;;;;5051196;28;20036;-77
2022/02/10 17:28:05;;;;;;;0.82;0.40;;;;;;;;;;5051074;28;20025;-76
2022/02/10 17:33:24;;;;;;;0.55;0.50;;;;;;;;;;5051238;28;20614;-79
2022/02/10 17:44:36;;;;;;;0.43;0.30;;;;;;;;;;5047469;28;20106;-80
2022/02/10 17:52:22;;;;;;;0.95;0.30;;;;;;;;;;5050323;28;20040;-79
2022/02/10 17:54:49;;;;;;;0.45;0.30;;;;;;;;;;5049980;28;20029;-78
2022/02/10 17:57:16;;;;;;;1.10;0.30;;;;;;;;;;5065758;28;20123;-79
2022/02/10 17:59:45;;;;;;;1.30;0.30;;;;;;;;;;5065055;28;20025;-77
2022/02/10 18:02:12;;;;;;;2.67;0.40;;;;;;;;;;5066679;28;20110;-80
2022/02/10 18:04:38;;;;;;;1.05;0.52;;;;;;;;;;5051281;28;20044;-79
2022/02/10 18:07:05;;;;;;;0.20;0.20;;;;;;;;;;5050383;28;20463;-79
2022/02/10 18:14:50;;;;;;;0.93;0.40;;;;;;;;;;5050397;28;20047;-79
2022/02/10 18:17:25;;;;;;;0.28;0.20;;;;;;;;;;5049947;28;20025;-78
2022/02/10 18:19:58;;;;;;;0.93;0.32;;;;;;;;;;5066714;28;20112;-77
2022/02/10 19:10:07;;;;;;;1.15;0.80;;;;;;;;;;5053533;28;20048;-77
2022/02/10 19:12:43;;;;;;;1.65;0.60;;;;;;;;;;5069687;28;20029;-76
2022/02/10 19:15:19;;;;;;;1.25;0.68;;;;;;;;;;5069242;28;20132;-76
2022/02/10 19:17:45;;;;;;;3.78;1.02;;;;;;;;;;5053129;28;20061;-77
2022/02/10 19:20:11;;;;;;;0.50;0.40;;;;;;;;;;5068690;28;20703;-79
2022/02/10 19:22:38;;;;;;;2.83;0.35;;;;;;;;;;5053404;28;20381;-79
2022/02/10 19:25:08;;;;;;;0.95;0.50;;;;;;;;;;5053479;28;20219;-75
2022/02/10 19:27:35;;;;;;;2.05;0.50;;;;;;;;;;5053730;28;20020;-77
2022/02/10 19:30:01;;;;;;;0.40;0.30;;;;;;;;;;5068351;28;20806;-76
2022/02/10 19:32:30;;;;;;;0.68;0.28;;;;;;;;;;5068278;28;20043;-77
2022/02/10 19:34:59;;;;;;;2.15;0.40;;;;;;;;;;5068261;28;20122;-78
2022/02/10 19:37:27;;;;;;;1.73;0.57;;;;;;;;;;5068600;28;20033;-76
2022/02/10 19:39:58;;;;;;;0.75;0.32;;;;;;;;;;5067268;28;20116;-78
2022/02/10 19:42:27;;;;;;;0.37;0.33;;;;;;;;;;5053547;28;20021;-79
2022/02/10 19:45:00;;;;;;;0.93;0.50;;;;;;;;;;5051700;28;20268;-76
2022/02/10 19:47:30;;;;;;;0.10;0.10;;;;;;;;;;5052406;28;20112;-80
2022/02/10 19:49:57;;;;;;;0.50;0.28;;;;;;;;;;5068881;28;20111;-78
2022/02/10 19:52:26;;;;;;;0.88;0.40;;;;;;;;;;5067952;28;20047;-78
2022/02/10 19:54:56;;;;;;;0.85;0.30;;;;;;;;;;5052793;28;20133;-77
2022/02/10 19:57:24;;;;;;;0.60;0.30;;;;;;;;;;5068109;28;20033;-78
2022/02/10 19:59:52;;;;;;;1.15;0.35;;;;;;;;;;5068745;28;20025;-78
2022/02/10 20:02:22;;;;;;;0.70;0.30;;;;;;;;;;5053049;28;20016;-80
2022/02/10 20:04:48;;;;;;;0.40;0.30;;;;;;;;;;5052179;28;20024;-79
2022/02/10 20:07:15;;;;;;;0.63;0.28;;;;;;;;;;5068391;28;20021;-74
2022/02/10 20:09:44;;;;;;;0.50;0.40;;;;;;;;;;5067960;28;20077;-79
2022/02/10 20:12:10;;;;;;;0.20;0.20;;;;;;;;;;5052527;28;20095;-80
2022/02/10 20:14:36;;;;;;;0.30;0.22;;;;;;;;;;5051650;28;20027;-79
2022/02/10 20:17:02;;;;;;;2.25;0.32;;;;;;;;;;5051382;28;20469;-80
2022/02/10 20:19:28;;;;;;;0.57;0.43;;;;;;;;;;5051273;28;20037;-80
2022/02/10 20:21:57;;;;;;;0.82;0.45;;;;;;;;;;5067988;28;20020;-80
2022/02/10 20:24:23;;;;;;;1.23;0.32;;;;;;;;;;5068448;28;20122;-80
2022/02/10 20:26:49;;;;;;;0.95;0.35;;;;;;;;;;5051949;28;20091;-80
2022/02/10 20:29:17;;;;;;;0.40;0.20;;;;;;;;;;5051508;28;20524;-79
2022/02/10 20:31:44;;;;;;;0.22;0.20;;;;;;;;;;5052619;28;20033;-78
2022/02/10 20:34:13;;;;;;;0.40;0.20;;;;;;;;;;5051550;28;20112;-76
2022/02/10 20:36:39;;;;;;;0.50;0.30;;;;;;;;;;5051794;28;20032;-77
2022/02/10 20:39:08;;;;;;;0.50;0.30;;;;;;;;;;5051085;28;20039;-80
2022/02/10 20:41:35;;;;;;;0.63;0.20;;;;;;;;;;5053516;28;20123;-79
2022/02/10 20:44:02;;;;;;;0.32;0.22;;;;;;;;;;5067731;28;20029;-77
2022/02/10 20:46:30;;;;;;;0.20;0.15;;;;;;;;;;5051546;28;20032;-79
2022/02/10 20:48:57;;;;;;;0.30;0.30;;;;;;;;;;5067588;28;20118;-78
2022/02/10 20:51:23;;;;;;;0.63;0.30;;;;;;;;;;5051284;28;20082;-79
2022/02/10 20:53:52;;;;;;;0.70;0.50;;;;;;;;;;5067135;28;20048;-77
2022/02/10 20:56:21;;;;;;;0.50;0.22;;;;;;;;;;5068152;28;20089;-78
2022/02/10 20:58:56;;;;;;;0.30;0.20;;;;;;;;;;5051616;28;20024;-78
2022/02/10 21:01:22;;;;;;;0.20;0.20;;;;;;;;;;5067659;28;20055;-77
2022/02/10 21:03:48;;;;;;;0.43;0.30;;;;;;;;;;5051185;28;20361;-79
2022/02/10 21:09:08;;;;;;;0.77;0.20;;;;;;;;;;5050891;28;21036;-78
2022/02/10 21:11:36;;;;;;;0.45;0.30;;;;;;;;;;5066321;28;20025;-79
2022/02/10 21:14:02;;;;;;;0.77;0.35;;;;;;;;;;5051520;28;20032;-78
2022/02/10 21:16:29;;;;;;;1.17;0.47;;;;;;;;;;5051578;28;20044;-80
2022/02/10 21:18:55;;;;;;;0.80;0.20;;;;;;;;;;5066462;28;20158;-81
2022/02/10 21:21:21;;;;;;;0.65;0.25;;;;;;;;;;5050616;28;20021;-78
2022/02/10 21:23:55;;;;;;;0.98;0.40;;;;;;;;;;5066781;28;20049;-74
2022/02/10 21:26:28;;;;;;;0.20;0.20;;;;;;;;;;5052083;28;20025;-78
2022/02/10 21:28:59;;;;;;;0.40;0.30;;;;;;;;;;5051420;28;20055;-77
2022/02/10 21:31:25;;;;;;;0.85;0.20;;;;;;;;;;5051147;28;20140;-78
2022/02/10 21:34:16;;;;;;;1.95;0.25;;;;;;;;;;5065988;28;20037;-77
2022/02/10 22:11:02;;;;;;;3.50;0.22;;;;;;;;;;5054059;28;20032;-77
2022/02/10 22:21:20;;;;;;;0.22;0.20;;;;;;;;;;5054553;28;20025;-74
2022/02/10 22:23:47;;;;;;;;;;;;;;;;;;5054416;28;20067;-78
2022/02/10 22:26:23;;;;;;;0.50;0.20;;;;;;;;;;5069921;28;19923;-77
2022/02/10 22:28:55;;;;;;;0.30;0.20;;;;;;;;;;5070224;28;20139;-78
2022/02/10 22:31:37;;;;;;;;;;;;;;;;;;5055370;28;20028;-77
2022/02/10 22:36:28;;;;;;;0.30;0.30;;;;;;;;;;5053133;28;20354;-77
2022/02/10 22:39:01;;;;;;;0.10;0.10;;;;;;;;;;5053919;28;20029;-79
2022/02/10 22:41:27;;;;;;;;;;;;;;;;;;5053925;28;20025;-76
2022/02/10 22:43:53;;;;;;;0.57;0.32;;;;;;;;;;5069045;28;19916;-78
2022/02/10 22:46:20;;;;;;;0.22;0.10;;;;;;;;;;5054710;28;20033;-76
2022/02/10 22:48:48;;;;;;;1.08;0.60;;;;;;;;;;5054449;28;20033;-79
2022/02/10 22:51:14;;;;;;;0.45;0.30;;;;;;;;;;5069228;28;20037;-77
2022/02/10 22:53:43;;;;;;;0.70;0.10;;;;;;;;;;5053288;28;20032;-79
2022/02/10 22:56:10;;;;;;;0.25;0.20;;;;;;;;;;5068642;28;20043;-78
2022/02/10 22:58:38;;;;;;;0.80;0.30;;;;;;;;;;5052809;28;20098;-78
2022/02/10 23:01:04;;;;;;;1.33;0.20;;;;;;;;;;5052969;28;20021;-78
2022/02/10 23:03:32;;;;;;;2.80;0.30;;;;;;;;;;5069302;28;20119;-78
2022/02/10 23:05:58;;;;;;;0.40;0.20;;;;;;;;;;5053887;28;20052;-75
2022/02/10 23:08:24;;;;;;;0.93;0.40;;;;;;;;;;5044204;28;20453;-75
2022/02/10 23:10:51;;;;;;;2.13;0.28;;;;;;;;;;5068736;28;20040;-78
2022/02/10 23:13:20;;;;;;;0.75;0.35;;;;;;;;;;5068199;28;21670;-78
2022/02/10 23:15:46;;;;;;;0.57;0.20;;;;;;;;;;5067680;28;20039;-78
2022/02/10 23:18:14;;;;;;;0.82;0.38;;;;;;;;;;5068940;28;20037;-77
2022/02/10 23:20:40;;;;;;;1.30;0.40;;;;;;;;;;5052270;28;20039;-77
2022/02/10 23:23:10;;;;;;;0.17;0.10;;;;;;;;;;5069412;28;20032;-77
2022/02/10 23:25:37;;;;;;;1.05;0.43;;;;;;;;;;5067877;28;20032;-78
2022/02/10 23:28:05;;;;;;;0.20;0.20;;;;;;;;;;5054011;28;20094;-79
2022/02/10 23:30:31;;;;;;;0.25;0.10;;;;;;;;;;5053091;28;20495;-78
2022/02/10 23:33:04;;;;;;;3.40;0.57;;;;;;;;;;5068633;28;21711;-79
2022/02/10 23:38:12;;;;;;;0.30;0.30;;;;;;;;;;5052339;28;20490;-76
2022/02/10 23:40:57;;;;;;;2.92;0.50;;;;;;;;;;5052600;28;20029;-76
2022/02/10 23:43:23;;;;;;;0.50;0.50;;;;;;;;;;5067884;28;20039;-77
2022/02/10 23:45:49;;;;;;;0.40;0.20;;;;;;;;;;5053393;28;20032;-77
2022/02/10 23:48:16;;;;;;;0.63;0.22;;;;;;;;;;5052612;28;20109;-76
2022/02/10 23:50:42;;;;;;;0.40;0.10;;;;;;;;;;5052415;28;20063;-78
2022/02/10 23:53:08;;;;;;;0.30;0.10;;;;;;;;;;5053030;28;20043;-74
2022/02/10 23:55:38;;;;;;;0.40;0.20;;;;;;;;;;5069116;28;20037;-78
